Time;durP1;ratioP1;P1;durP2;ratioP2;P2;SDS_P1;SDS_P2;PMS_P1;PMS_P2;Temp;Humidity;BMP_temperature;BMP_pressure;BME280_temperature;BME280_humidity;BME280_pressure;Samples;Min_cycle;Max_cycle;Signal;HPM_P1;HPM_P2
2023/04/11 00:02:05;;;;;;;5.53;1.73;;;;;;;11.85;62.96;95180.34;6094612;23;20149;-81
2023/04/11 00:04:32;;;;;;;3.70;1.67;;;;;;;11.84;63.66;95179.53;6093553;23;20208;-82
2023/04/11 00:06:58;;;;;;;4.13;1.60;;;;;;;11.82;63.56;95171.03;6093984;23;20180;-82
2023/04/11 00:09:23;;;;;;;3.33;1.93;;;;;;;11.79;62.99;95165.34;6094132;23;20195;-82
2023/04/11 00:11:49;;;;;;;4.27;1.83;;;;;;;11.75;62.87;95170.06;6094087;23;20475;-83
2023/04/11 00:14:16;;;;;;;2.93;1.67;;;;;;;11.75;62.35;95174.44;6118530;23;20164;-82
2023/04/11 00:16:41;;;;;;;4.93;1.77;;;;;;;11.84;62.14;95161.31;6093544;23;20156;-82
2023/04/11 00:19:08;;;;;;;3.00;1.60;;;;;;;11.80;61.61;95157.41;6093704;23;20188;-82
2023/04/11 00:21:34;;;;;;;5.93;1.93;;;;;;;11.98;60.91;95144.19;6093902;23;20172;-82
2023/04/11 00:23:59;;;;;;;3.60;1.70;;;;;;;12.03;61.17;95138.50;6093949;23;20193;-82
2023/04/11 00:26:25;;;;;;;2.83;1.70;;;;;;;11.95;60.87;95115.09;6117844;23;20161;-81
2023/04/11 00:28:50;;;;;;;2.97;1.57;;;;;;;11.91;61.40;95122.41;6095107;23;20167;-82
2023/04/11 00:31:15;;;;;;;2.80;1.77;;;;;;;11.93;61.69;95153.47;6096318;23;20184;-81
2023/04/11 00:33:41;;;;;;;2.23;1.93;;;;;;;11.94;62.46;95174.13;6095586;23;20181;-82
2023/04/11 00:36:07;;;;;;;2.77;1.80;;;;;;;11.87;62.80;95167.97;6095441;23;20172;-82
2023/04/11 00:38:32;;;;;;;2.87;1.50;;;;;;;11.85;63.00;95165.53;6095503;23;20463;-82
2023/04/11 00:40:57;;;;;;;3.07;1.50;;;;;;;11.79;63.75;95155.75;6096171;23;20233;-81
2023/04/11 00:43:23;;;;;;;1.83;1.63;;;;;;;11.66;63.65;95152.84;6095396;23;20544;-82
2023/04/11 00:45:48;;;;;;;4.67;2.90;;;;;;;11.75;63.66;95158.81;6093424;23;20572;-82
2023/04/11 00:48:14;;;;;;;2.47;1.87;;;;;;;11.71;65.19;95166.16;6095876;23;20171;-82
2023/04/11 00:50:41;;;;;;;2.93;1.67;;;;;;;11.74;65.56;95167.59;6095940;23;20195;-82
2023/04/11 00:53:07;;;;;;;2.77;1.80;;;;;;;11.73;67.48;95163.38;6119769;23;20176;-82
2023/04/11 00:55:33;;;;;;;5.70;2.03;;;;;;;11.52;69.14;95159.50;6119608;23;20157;-81
2023/04/11 00:57:58;;;;;;;5.03;1.83;;;;;;;11.55;70.45;95153.97;6095432;23;20223;-82
2023/04/11 01:00:24;;;;;;;4.10;1.93;;;;;;;11.59;71.60;95176.09;6094915;23;20196;-81
2023/04/11 01:02:49;;;;;;;1.50;1.40;;;;;;;11.10;75.29;95179.59;6095475;23;20164;-82
2023/04/11 01:05:15;;;;;;;2.57;1.73;;;;;;;11.16;75.77;95176.38;6094616;23;20157;-81
2023/04/11 01:07:43;;;;;;;4.00;1.90;;;;;;;11.15;77.36;95179.94;6094908;23;20180;-82
2023/04/11 01:10:09;;;;;;;4.37;1.90;;;;;;;10.86;80.43;95175.16;6095211;23;20556;-81
2023/04/11 01:12:35;;;;;;;2.40;2.10;;;;;;;10.91;81.42;95191.91;6095141;23;20227;-82
2023/04/11 01:15:01;;;;;;;2.77;1.80;;;;;;;10.91;83.15;95171.13;6095173;23;20163;-82
2023/04/11 01:17:26;;;;;;;2.77;2.13;;;;;;;10.78;84.93;95175.97;6071004;23;20502;-83
2023/04/11 01:19:51;;;;;;;4.37;2.17;;;;;;;10.70;85.66;95165.53;6095330;23;20682;-82
2023/04/11 01:22:19;;;;;;;6.23;2.07;;;;;;;10.73;86.32;95173.81;6121758;23;20212;-83
2023/04/11 01:24:44;;;;;;;3.03;2.00;;;;;;;10.61;87.35;95189.84;6095257;23;20157;-83
2023/04/11 01:27:10;;;;;;;2.70;1.93;;;;;;;10.58;87.64;95203.13;6095953;23;20212;-83
2023/04/11 01:29:35;;;;;;;3.00;2.10;;;;;;;10.63;88.14;95212.09;6096794;23;20177;-83
2023/04/11 01:32:01;;;;;;;2.83;2.00;;;;;;;10.64;88.51;95194.72;6096540;23;20176;-82
2023/04/11 01:34:27;;;;;;;2.37;1.97;;;;;;;10.61;89.02;95189.84;6095859;23;20161;-82
2023/04/11 01:36:52;;;;;;;3.10;1.80;;;;;;;10.60;89.44;95199.44;6095500;23;20157;-82
2023/04/11 01:39:17;;;;;;;2.50;1.67;;;;;;;10.38;91.39;95193.00;6095794;23;20552;-82
2023/04/11 01:41:44;;;;;;;1.50;1.03;;;;;;;10.17;93.22;95218.47;6096169;23;20161;-83
2023/04/11 01:44:10;;;;;;;1.97;1.40;;;;;;;9.93;92.26;95225.13;6094497;23;20683;-82
2023/04/11 01:46:35;;;;;;;2.67;0.80;;;;;;;9.86;90.80;95212.91;6095978;23;20188;-83
2023/04/11 01:49:01;;;;;;;4.17;1.00;;;;;;;9.35;93.13;95206.66;6097392;23;20477;-83
2023/04/11 01:51:27;;;;;;;1.00;0.80;;;;;;;9.42;92.96;95215.47;6097510;23;20189;-83
2023/04/11 01:53:53;;;;;;;2.00;0.90;;;;;;;9.40;92.47;95214.00;6096849;23;20176;-83
2023/04/11 01:56:18;;;;;;;0.70;0.70;;;;;;;9.27;92.59;95209.16;6121286;23;20161;-83
2023/04/11 01:58:43;;;;;;;4.10;0.80;;;;;;;9.27;91.35;95209.97;6096872;23;20187;-82
2023/04/11 02:01:09;;;;;;;4.00;0.90;;;;;;;9.06;92.12;95236.19;6096263;23;20180;-83
2023/04/11 02:03:35;;;;;;;2.30;0.90;;;;;;;9.21;91.56;95243.47;6097285;23;20156;-83
2023/04/11 02:06:01;;;;;;;3.00;0.80;;;;;;;9.03;93.23;95252.00;6096022;23;20256;-83
2023/04/11 02:08:26;;;;;;;0.90;0.80;;;;;;;9.26;92.53;95259.34;6096587;23;20160;-83
2023/04/11 02:10:51;;;;;;;2.37;0.90;;;;;;;9.19;94.29;95248.78;6096813;23;20184;-83
2023/04/11 02:13:16;;;;;;;0.77;0.77;;;;;;;9.24;94.65;95250.94;6096852;23;20176;-83
2023/04/11 02:15:42;;;;;;;1.80;1.03;;;;;;;9.24;95.14;95241.38;6095395;23;20487;-83
2023/04/11 02:18:08;;;;;;;3.53;0.90;;;;;;;9.21;95.41;95226.13;6095845;23;20208;-83
2023/04/11 02:20:34;;;;;;;1.47;0.80;;;;;;;9.20;94.96;95223.69;6097199;23;20176;-82
2023/04/11 02:23:03;;;;;;;1.30;0.80;;;;;;;9.20;93.77;95226.28;6096242;23;20223;-81
2023/04/11 02:25:28;;;;;;;2.13;1.00;;;;;;;9.08;93.12;95231.66;6094909;23;20248;-83
2023/04/11 02:27:53;;;;;;;4.93;0.90;;;;;;;8.94;91.62;95233.94;6096226;23;20189;-83
2023/04/11 02:30:19;;;;;;;5.07;1.00;;;;;;;8.92;91.81;95228.06;6097185;23;20191;-82
2023/04/11 02:32:45;;;;;;;4.73;1.00;;;;;;;8.88;91.92;95218.97;6095512;23;20204;-81
2023/04/11 02:35:10;;;;;;;2.50;1.10;;;;;;;8.95;92.06;95228.63;6095307;23;20192;-83
2023/04/11 02:37:36;;;;;;;2.40;0.67;;;;;;;8.99;91.71;95231.72;6095720;23;20165;-81
2023/04/11 02:40:02;;;;;;;4.10;1.20;;;;;;;8.89;92.35;95225.78;6119984;23;20184;-82
2023/04/11 02:42:28;;;;;;;7.40;1.03;;;;;;;8.84;92.64;95228.81;6098057;23;20592;-82
2023/04/11 02:44:54;;;;;;;4.60;0.90;;;;;;;8.93;92.26;95227.13;6093542;23;20207;-82
2023/04/11 02:47:19;;;;;;;5.67;1.57;;;;;;;8.85;92.10;95216.69;6096392;23;20161;-82
2023/04/11 02:49:45;;;;;;;3.00;1.20;;;;;;;8.83;92.90;95201.28;6095251;23;20778;-83
2023/04/11 02:52:10;;;;;;;3.00;1.10;;;;;;;8.93;91.90;95186.50;6095214;23;20181;-83
2023/04/11 02:54:35;;;;;;;2.80;1.03;;;;;;;8.85;92.70;95188.19;6094675;23;20173;-82
2023/04/11 02:57:04;;;;;;;1.80;0.77;;;;;;;8.79;93.48;95195.59;6096101;23;20172;-81
2023/04/11 02:59:29;;;;;;;1.40;0.80;;;;;;;8.59;94.32;95201.81;6119440;23;20161;-83
2023/04/11 03:01:58;;;;;;;3.70;1.00;;;;;;;8.74;93.81;95210.72;6096090;23;20658;-82
2023/04/11 03:04:23;;;;;;;3.77;1.43;;;;;;;8.56;94.90;95217.63;6095790;23;20235;-82
2023/04/11 03:06:49;;;;;;;2.97;1.17;;;;;;;8.72;94.49;95222.19;6095705;23;20214;-81
2023/04/11 03:09:14;;;;;;;2.27;0.90;;;;;;;8.74;94.38;95228.84;6095426;23;20163;-82
2023/04/11 03:11:40;;;;;;;2.33;0.90;;;;;;;8.75;94.25;95217.56;6096263;23;20211;-82
2023/04/11 03:14:05;;;;;;;1.67;0.80;;;;;;;8.66;95.57;95221.00;6095088;23;20168;-82
2023/04/11 03:16:31;;;;;;;3.30;1.10;;;;;;;8.75;94.88;95217.56;6094237;23;20541;-82
2023/04/11 03:18:57;;;;;;;2.27;0.80;;;;;;;8.76;95.13;95216.59;6095320;23;20331;-81
2023/04/11 03:21:23;;;;;;;2.73;1.17;;;;;;;8.83;94.97;95214.22;6094167;23;20184;-80
2023/04/11 03:23:48;;;;;;;3.00;0.93;;;;;;;8.89;93.98;95202.47;6094583;23;20224;-82
2023/04/11 03:26:13;;;;;;;3.13;1.10;;;;;;;8.87;94.16;95201.81;6094001;23;20161;-81
2023/04/11 03:28:39;;;;;;;4.50;1.20;;;;;;;8.89;93.76;95203.28;6119891;23;20622;-81
2023/04/11 03:31:05;;;;;;;2.03;1.40;;;;;;;8.86;93.54;95197.59;6094456;23;20184;-81
2023/04/11 03:33:30;;;;;;;3.60;0.90;;;;;;;8.82;94.36;95212.59;6119864;23;20183;-81
2023/04/11 03:35:55;;;;;;;2.53;1.20;;;;;;;8.87;93.59;95218.16;6094144;23;20478;-84
2023/04/11 03:38:21;;;;;;;4.50;1.13;;;;;;;8.70;95.20;95209.41;6094852;23;20165;-84
2023/04/11 03:40:46;;;;;;;2.33;0.87;;;;;;;8.79;94.56;95224.06;6094820;23;20243;-83
2023/04/11 03:43:11;;;;;;;3.20;1.10;;;;;;;8.72;95.55;95217.00;6094734;23;20153;-83
2023/04/11 03:45:37;;;;;;;5.70;1.47;;;;;;;8.61;97.14;95219.78;6094927;23;20165;-81
2023/04/11 03:48:02;;;;;;;7.03;1.40;;;;;;;8.73;96.21;95218.63;6094695;23;20164;-81
2023/04/11 03:50:27;;;;;;;3.47;1.37;;;;;;;8.67;96.51;95219.22;6094583;23;20646;-83
2023/04/11 03:52:53;;;;;;;3.17;1.10;;;;;;;8.52;97.68;95218.88;6094168;23;20211;-83
2023/04/11 03:55:19;;;;;;;1.70;1.10;;;;;;;8.35;99.16;95228.19;6094052;23;20168;-83
2023/04/11 03:57:45;;;;;;;2.83;1.00;;;;;;;8.42;98.83;95206.00;6095337;23;20164;-83
2023/04/11 04:00:11;;;;;;;3.13;1.00;;;;;;;8.39;99.01;95224.41;6096463;23;20274;-82
2023/04/11 04:02:36;;;;;;;3.07;1.20;;;;;;;8.38;98.26;95234.84;6095817;23;20251;-83
2023/04/11 04:05:02;;;;;;;3.33;1.50;;;;;;;8.44;97.69;95229.13;6095390;23;20196;-83
2023/04/11 04:07:27;;;;;;;3.70;0.90;;;;;;;8.22;98.01;95232.84;6097584;23;20244;-83
2023/04/11 04:09:53;;;;;;;3.60;0.90;;;;;;;8.21;98.21;95221.66;6096405;23;20176;-82
2023/04/11 04:12:22;;;;;;;2.40;1.13;;;;;;;8.16;97.65;95225.66;6095185;23;20172;-83
2023/04/11 04:14:47;;;;;;;1.83;0.93;;;;;;;8.30;96.85;95239.88;6105946;23;20164;-83
2023/04/11 04:17:14;;;;;;;2.10;0.70;;;;;;;8.18;97.61;95219.38;6122697;23;20177;-84
2023/04/11 04:19:40;;;;;;;1.37;0.63;;;;;;;8.12;97.95;95226.88;6123863;23;20168;-83
2023/04/11 04:22:10;;;;;;;1.13;0.80;;;;;;;8.21;97.25;95233.78;6099673;23;20413;-83
2023/04/11 04:24:36;;;;;;;1.97;1.00;;;;;;;8.19;97.63;95238.28;6122665;23;20204;-84
2023/04/11 04:27:02;;;;;;;1.10;0.73;;;;;;;8.03;99.01;95231.13;6122999;23;20149;-83
2023/04/11 04:29:32;;;;;;;2.20;0.90;;;;;;;7.98;98.47;95246.25;6098782;23;20155;-83
2023/04/11 04:31:58;;;;;;;1.97;1.10;;;;;;;8.04;98.34;95247.44;6122542;23;20145;-83
2023/04/11 04:34:27;;;;;;;1.47;0.87;;;;;;;8.05;98.41;95238.75;6121298;23;20160;-83
2023/04/11 04:36:58;;;;;;;3.37;0.83;;;;;;;7.92;98.56;95257.94;6101159;23;20237;-81
2023/04/11 04:39:24;;;;;;;1.70;0.70;;;;;;;7.98;98.94;95281.63;6095480;23;20161;-82
2023/04/11 04:41:56;;;;;;;3.67;1.07;;;;;;;7.88;98.91;95286.81;6096157;23;20637;-82
2023/04/11 04:44:23;;;;;;;3.10;0.87;;;;;;;7.79;99.20;95285.06;6095515;23;20189;-83
2023/04/11 04:46:53;;;;;;;1.70;1.07;;;;;;;7.91;99.62;95299.47;6118156;23;20850;-83
2023/04/11 04:49:18;;;;;;;1.77;1.20;;;;;;;8.02;98.65;95304.47;6118770;23;20179;-83
2023/04/11 04:51:43;;;;;;;1.43;0.60;;;;;;;7.75;99.80;95294.00;6092865;23;20165;-83
2023/04/11 04:54:09;;;;;;;1.93;0.90;;;;;;;7.84;98.57;95313.88;6094067;23;20169;-83
2023/04/11 04:56:34;;;;;;;1.10;0.90;;;;;;;7.91;97.94;95318.38;6092523;23;20164;-82
2023/04/11 04:58:59;;;;;;;2.57;0.90;;;;;;;8.03;97.12;95323.38;6093032;23;20171;-81
2023/04/11 05:01:25;;;;;;;1.80;1.00;;;;;;;7.88;95.72;95336.75;6092797;23;20535;-82
2023/04/11 05:03:57;;;;;;;5.47;1.30;;;;;;;7.86;95.30;95346.41;6093018;23;20161;-81
2023/04/11 05:06:27;;;;;;;4.37;1.37;;;;;;;7.80;95.35;95331.44;6116697;23;20171;-81
2023/04/11 05:08:52;;;;;;;3.47;1.10;;;;;;;7.77;93.43;95351.56;6093567;23;20670;-82
2023/04/11 05:11:17;;;;;;;4.20;1.60;;;;;;;7.70;92.17;95347.91;6093501;23;20180;-81
2023/04/11 05:13:43;;;;;;;1.90;1.17;;;;;;;7.75;91.71;95340.53;6092845;23;20207;-82
2023/04/11 05:16:08;;;;;;;4.90;1.00;;;;;;;7.81;91.55;95342.59;6094714;23;20496;-83
2023/04/11 05:18:34;;;;;;;2.67;1.30;;;;;;;7.62;91.06;95340.81;6092573;23;20172;-81
2023/04/11 05:21:00;;;;;;;2.67;1.10;;;;;;;7.51;90.06;95328.00;6095356;23;20173;-81
2023/04/11 05:23:25;;;;;;;3.00;1.00;;;;;;;7.54;89.44;95330.34;6095183;23;20164;-81
2023/04/11 05:25:50;;;;;;;2.03;1.50;;;;;;;7.55;88.67;95345.69;6094564;23;20477;-80
2023/04/11 05:28:16;;;;;;;3.27;1.60;;;;;;;7.57;87.96;95325.69;6096420;23;20156;-82
2023/04/11 05:30:41;;;;;;;3.73;1.50;;;;;;;7.49;86.92;95332.50;6096334;23;20192;-81
2023/04/11 05:33:06;;;;;;;3.30;1.23;;;;;;;7.54;87.64;95340.66;6095592;23;20586;-82
2023/04/11 05:35:32;;;;;;;3.83;1.60;;;;;;;7.58;88.60;95339.44;6093808;23;20168;-81
2023/04/11 05:37:57;;;;;;;3.27;1.37;;;;;;;7.50;88.76;95339.28;6094655;23;20179;-82
2023/04/11 05:40:22;;;;;;;1.13;0.87;;;;;;;7.54;88.81;95338.09;6095307;23;20716;-82
2023/04/11 05:42:48;;;;;;;4.00;1.10;;;;;;;7.66;88.64;95337.00;6095485;23;20243;-80
2023/04/11 05:45:13;;;;;;;3.60;0.80;;;;;;;7.60;89.13;95340.16;6094949;23;20187;-81
2023/04/11 05:47:38;;;;;;;2.00;0.80;;;;;;;7.58;88.76;95337.66;6095686;23;20203;-81
2023/04/11 05:50:04;;;;;;;2.67;0.73;;;;;;;7.37;88.50;95344.72;6094384;23;20207;-81
2023/04/11 05:52:30;;;;;;;4.43;0.80;;;;;;;7.47;88.89;95345.56;6096391;23;20176;-82
2023/04/11 05:54:55;;;;;;;4.93;1.10;;;;;;;7.53;87.70;95349.38;6118338;23;20730;-82
2023/04/11 05:57:20;;;;;;;3.77;1.00;;;;;;;7.57;87.87;95355.91;6094895;23;20561;-81
2023/04/11 05:59:48;;;;;;;2.30;0.90;;;;;;;7.72;88.02;95354.56;6096114;23;20201;-82
2023/04/11 06:02:14;;;;;;;5.00;0.93;;;;;;;7.74;88.35;95354.44;6094839;23;20175;-82
2023/04/11 06:04:40;;;;;;;4.23;1.13;;;;;;;7.74;88.07;95369.94;6094312;23;20232;-81
2023/04/11 06:07:07;;;;;;;1.53;0.77;;;;;;;7.88;87.82;95354.03;6092856;23;20599;-81
2023/04/11 06:09:32;;;;;;;3.33;1.00;;;;;;;7.79;88.29;95353.09;6094383;23;20185;-81
2023/04/11 06:11:57;;;;;;;2.77;1.10;;;;;;;7.65;89.34;95350.88;6093829;23;20242;-81
2023/04/11 06:14:22;;;;;;;4.50;1.43;;;;;;;7.74;89.03;95357.81;6095367;23;20487;-81
2023/04/11 06:16:48;;;;;;;2.77;0.90;;;;;;;7.78;89.72;95358.38;6095266;23;20160;-82
2023/04/11 06:19:13;;;;;;;6.40;1.20;;;;;;;7.90;89.06;95367.63;6096081;23;20167;-81
2023/04/11 06:21:38;;;;;;;2.83;1.07;;;;;;;7.83;89.33;95362.19;6094305;23;20179;-83
2023/04/11 06:24:08;;;;;;;6.40;1.23;;;;;;;7.79;89.36;95371.19;6093694;23;20153;-82
2023/04/11 06:26:34;;;;;;;6.77;1.47;;;;;;;7.93;88.21;95364.78;6117533;23;20167;-83
2023/04/11 06:29:02;;;;;;;6.20;1.27;;;;;;;7.94;89.22;95374.16;6094803;23;20160;-84
2023/04/11 06:31:30;;;;;;;6.77;1.40;;;;;;;7.75;87.89;95368.97;6094293;23;20180;-83
2023/04/11 06:33:55;;;;;;;7.73;1.30;;;;;;;7.89;87.27;95373.75;6093849;23;20207;-83
2023/04/11 06:36:20;;;;;;;3.27;1.37;;;;;;;7.81;86.14;95379.59;6116371;23;20220;-83
2023/04/11 06:38:46;;;;;;;3.73;1.37;;;;;;;7.91;86.44;95377.84;6094298;23;20164;-82
2023/04/11 06:41:11;;;;;;;5.40;1.40;;;;;;;7.83;86.50;95387.22;6094932;23;20181;-84
2023/04/11 06:43:39;;;;;;;5.63;1.23;;;;;;;8.08;85.64;95385.88;6095517;23;20159;-83
2023/04/11 06:46:06;;;;;;;5.13;1.30;;;;;;;8.03;85.43;95382.88;6094380;23;20164;-83
2023/04/11 06:48:34;;;;;;;6.53;1.53;;;;;;;8.17;85.36;95396.22;6095481;23;20168;-82
2023/04/11 06:51:00;;;;;;;4.80;1.40;;;;;;;8.12;84.41;95395.81;6093905;23;20192;-82
2023/04/11 06:53:34;;;;;;;5.23;1.77;;;;;;;7.95;84.20;95392.16;6094705;23;20569;-83
2023/04/11 06:56:00;;;;;;;4.27;1.63;;;;;;;8.02;83.56;95389.81;6118672;23;20662;-81
2023/04/11 06:58:25;;;;;;;5.50;1.40;;;;;;;8.35;82.95;95404.16;6096797;23;20208;-82
2023/04/11 07:00:51;;;;;;;4.73;1.33;;;;;;;8.26;83.13;95415.28;6095195;23;20528;-83
2023/04/11 07:03:19;;;;;;;4.17;1.70;;;;;;;8.19;82.38;95398.66;6095194;23;20300;-82
2023/04/11 07:05:44;;;;;;;5.37;1.53;;;;;;;8.19;82.67;95421.94;6094046;23;20623;-83
2023/04/11 07:08:09;;;;;;;4.77;1.47;;;;;;;8.25;82.41;95429.19;6094362;23;20164;-82
2023/04/11 07:10:35;;;;;;;8.13;1.57;;;;;;;8.37;81.52;95427.28;6094170;23;20199;-82
2023/04/11 07:13:00;;;;;;;6.50;1.50;;;;;;;8.27;81.36;95422.09;6094865;23;20181;-82
2023/04/11 07:15:26;;;;;;;8.50;1.60;;;;;;;8.49;80.55;95421.03;6094071;23;20164;-82
2023/04/11 07:17:51;;;;;;;6.23;1.57;;;;;;;8.65;79.88;95412.69;6094508;23;20164;-82
2023/04/11 07:20:17;;;;;;;6.67;1.40;;;;;;;8.60;80.04;95431.22;6095208;23;20203;-81
2023/04/11 07:22:42;;;;;;;7.73;1.83;;;;;;;8.69;79.29;95433.00;6097521;23;20153;-83
2023/04/11 07:25:08;;;;;;;4.33;1.77;;;;;;;8.93;78.78;95442.09;6094484;23;20157;-82
2023/04/11 07:27:35;;;;;;;4.13;1.50;;;;;;;9.01;78.25;95434.41;6094519;23;20599;-81
2023/04/11 07:30:00;;;;;;;6.37;1.83;;;;;;;9.03;77.83;95445.47;6094099;23;20231;-82
2023/04/11 07:32:26;;;;;;;5.53;1.20;;;;;;;9.19;77.71;95444.84;6093592;23;20180;-82
2023/04/11 07:34:52;;;;;;;6.00;1.77;;;;;;;8.94;77.19;95441.13;6093654;23;20179;-83
2023/04/11 07:37:17;;;;;;;3.37;1.30;;;;;;;8.97;77.63;95444.25;6093856;23;20161;-82
2023/04/11 07:39:43;;;;;;;4.97;1.43;;;;;;;8.93;76.55;95444.66;6093313;23;20183;-83
2023/04/11 07:42:09;;;;;;;6.43;1.40;;;;;;;9.11;76.43;95430.03;6094636;23;20548;-83
2023/04/11 07:44:35;;;;;;;7.03;1.40;;;;;;;9.16;76.39;95445.97;6093794;23;20204;-82
2023/04/11 07:47:00;;;;;;;5.50;1.93;;;;;;;9.51;75.04;95460.81;6118937;23;20160;-82
2023/04/11 07:49:25;;;;;;;6.07;1.80;;;;;;;9.81;73.89;95451.97;6069507;23;20200;-82
2023/04/11 07:51:54;;;;;;;6.83;1.47;;;;;;;9.96;72.27;95441.91;6094069;23;20558;-86
2023/04/11 07:54:19;;;;;;;8.83;1.83;;;;;;;9.60;72.80;95439.22;6096597;23;20157;-83
2023/04/11 07:56:44;;;;;;;5.57;1.30;;;;;;;9.76;71.83;95441.19;6093678;23;20502;-82
2023/04/11 07:59:12;;;;;;;6.43;1.67;;;;;;;10.30;69.73;95438.69;6094390;23;20153;-82
2023/04/11 08:01:38;;;;;;;4.77;1.10;;;;;;;10.64;69.18;95442.25;6095010;23;20164;-83
2023/04/11 08:04:03;;;;;;;2.93;1.10;;;;;;;10.32;68.13;95439.34;6094995;23;20807;-82
2023/04/11 08:06:30;;;;;;;4.87;1.23;;;;;;;10.20;69.87;95444.75;6095926;23;20168;-80
2023/04/11 08:08:57;;;;;;;3.80;1.40;;;;;;;9.57;68.82;95451.69;6095027;23;20165;-82
2023/04/11 08:11:22;;;;;;;8.23;2.00;;;;;;;10.14;68.61;95463.47;6087407;23;20184;-81
2023/04/11 08:13:48;;;;;;;3.60;1.03;;;;;;;10.28;68.13;95453.59;6091566;23;20196;-82
2023/04/11 08:16:14;;;;;;;5.03;1.40;;;;;;;10.45;66.96;95455.38;6091406;23;20215;-81
2023/04/11 08:18:44;;;;;;;4.63;1.37;;;;;;;10.27;66.63;95451.97;6091557;23;20492;-79
2023/04/11 08:21:10;;;;;;;5.53;1.50;;;;;;;10.36;66.75;95461.47;6090906;23;20183;-79
2023/04/11 08:23:36;;;;;;;5.07;1.40;;;;;;;10.41;66.79;95444.47;6088561;23;20160;-80
2023/04/11 08:26:01;;;;;;;7.87;1.60;;;;;;;10.32;64.48;95460.94;6090449;23;20165;-80
2023/04/11 08:28:26;;;;;;;5.80;1.47;;;;;;;10.44;65.02;95457.16;6091382;23;20168;-81
2023/04/11 08:30:54;;;;;;;7.33;1.63;;;;;;;10.28;64.77;95457.00;6091667;23;20912;-80
2023/04/11 08:33:23;;;;;;;7.13;1.50;;;;;;;10.60;64.15;95460.84;6090978;23;20284;-82
2023/04/11 08:35:48;;;;;;;5.53;1.30;;;;;;;10.54;64.33;95457.09;6091342;23;20192;-82
2023/04/11 08:38:13;;;;;;;7.27;1.30;;;;;;;9.96;64.65;95454.88;6091170;23;20165;-83
2023/04/11 08:40:39;;;;;;;2.13;1.13;;;;;;;10.08;66.21;95455.50;6090580;23;20669;-82
2023/04/11 08:43:10;;;;;;;9.17;1.90;;;;;;;10.12;65.77;95464.59;6090173;23;20144;-82
2023/04/11 08:45:36;;;;;;;6.10;1.70;;;;;;;10.16;65.85;95460.78;6089718;23;20583;-82
2023/04/11 08:48:01;;;;;;;4.43;1.20;;;;;;;10.18;65.19;95462.25;6090858;23;20164;-83
2023/04/11 08:50:26;;;;;;;9.53;1.50;;;;;;;10.54;64.63;95477.03;6092190;23;20232;-82
2023/04/11 08:52:53;;;;;;;5.90;1.57;;;;;;;10.46;63.76;95470.81;6095415;23;20184;-82
2023/04/11 08:55:18;;;;;;;4.30;1.40;;;;;;;10.43;64.98;95471.13;6095241;23;20622;-81
2023/04/11 08:57:43;;;;;;;7.47;1.80;;;;;;;10.37;64.80;95473.47;6097109;23;20161;-81
2023/04/11 09:00:13;;;;;;;4.33;1.20;;;;;;;10.76;64.82;95473.97;6096866;23;20178;-82
2023/04/11 09:03:02;;;;;;;4.97;1.80;;;;;;;10.98;63.28;95473.50;6097016;23;20216;-82
2023/04/11 09:05:30;;;;;;;3.93;1.67;;;;;;;11.22;61.28;95485.00;6091695;23;20176;-82
2023/04/11 09:07:57;;;;;;;5.10;1.50;;;;;;;10.82;62.76;95481.16;6098464;23;20157;-81
2023/04/11 09:10:23;;;;;;;6.10;1.95;;;;;;;10.70;64.27;95485.78;6100469;23;20412;-80
2023/04/11 09:12:49;;;;;;;6.53;1.73;;;;;;;10.45;63.13;95484.75;6101860;23;20193;-81
2023/04/11 09:15:22;;;;;;;5.30;1.97;;;;;;;10.77;62.77;95481.59;6103784;23;20472;-81
2023/04/11 09:17:51;;;;;;;5.47;1.83;;;;;;;10.70;63.75;95485.78;6105425;23;20168;-80
2023/04/11 09:20:16;;;;;;;6.47;2.53;;;;;;;10.35;63.41;95475.41;6106745;23;20180;-82
2023/04/11 09:22:42;;;;;;;9.47;2.23;;;;;;;10.23;64.99;95481.75;6128021;23;20232;-81
2023/04/11 09:25:07;;;;;;;10.30;2.90;;;;;;;10.31;64.02;95485.25;6103722;23;20248;-82
2023/04/11 09:27:33;;;;;;;8.37;2.33;;;;;;;10.52;64.27;95476.38;6102195;23;20551;-81
2023/04/11 09:29:59;;;;;;;4.97;2.13;;;;;;;10.71;63.31;95479.63;6100172;23;20615;-82
2023/04/11 09:32:28;;;;;;;13.40;2.60;;;;;;;10.97;62.51;95490.06;6100540;23;20212;-82
2023/04/11 09:35:19;;;;;;;4.40;1.83;;;;;;;10.99;61.57;95495.09;6100587;23;20642;-80
2023/04/11 09:37:55;;;;;;;6.33;1.90;;;;;;;11.06;62.75;95494.34;6100486;23;20183;-81
2023/04/11 09:40:22;;;;;;;11.53;2.30;;;;;;;10.73;63.13;95495.06;6102113;23;20196;-81
2023/04/11 09:42:55;;;;;;;8.47;2.43;;;;;;;10.61;63.57;95497.09;6101947;23;20167;-81
2023/04/11 09:45:22;;;;;;;9.20;1.73;;;;;;;10.70;63.18;95488.41;6101454;23;20183;-80
2023/04/11 09:47:49;;;;;;;7.30;1.90;;;;;;;10.61;62.44;95484.09;6101417;23;20211;-81
2023/04/11 09:50:15;;;;;;;5.97;2.23;;;;;;;10.36;63.98;95492.63;6101946;23;20188;-81
2023/04/11 09:52:41;;;;;;;5.67;1.57;;;;;;;9.91;65.78;95512.38;6077473;23;20189;-81
2023/04/11 09:55:10;;;;;;;4.87;1.43;;;;;;;9.62;69.89;95509.06;6126931;23;20448;-81
2023/04/11 09:57:36;;;;;;;5.33;1.50;;;;;;;9.71;70.53;95505.63;6127097;23;20228;-81
2023/04/11 10:00:13;;;;;;;5.60;2.00;;;;;;;10.00;71.26;95504.69;6103118;23;20267;-81
2023/04/11 10:02:39;;;;;;;10.13;1.70;;;;;;;10.45;70.58;95508.13;6102591;23;20136;-81
2023/04/11 10:05:06;;;;;;;4.03;1.77;;;;;;;10.39;71.21;95513.06;6078264;23;20160;-81
2023/04/11 10:07:33;;;;;;;3.90;1.60;;;;;;;10.66;70.78;95510.41;6102773;23;20167;-81
2023/04/11 10:09:58;;;;;;;3.37;1.70;;;;;;;10.83;69.51;95505.38;6101382;23;20224;-80
2023/04/11 10:12:30;;;;;;;4.77;1.60;;;;;;;11.06;67.46;95509.94;6100778;23;20188;-80
2023/04/11 10:14:55;;;;;;;6.70;1.43;;;;;;;11.03;66.56;95497.22;6100581;23;20243;-81
2023/04/11 10:17:21;;;;;;;5.97;1.67;;;;;;;10.81;66.55;95502.09;6102545;23;20220;-81
2023/04/11 10:19:47;;;;;;;5.77;1.53;;;;;;;10.97;64.73;95497.84;6101715;23;20184;-80
2023/04/11 10:22:41;;;;;;;8.43;1.70;;;;;;;11.38;63.80;95499.91;6121996;23;20191;-81
2023/04/11 10:25:23;;;;;;;3.60;1.33;;;;;;;11.32;62.50;95491.75;6122878;23;20676;-80
2023/04/11 10:27:52;;;;;;;5.07;1.47;;;;;;;11.40;60.88;95498.81;6100713;23;20157;-79
2023/04/11 10:30:17;;;;;;;8.87;1.57;;;;;;;11.26;60.14;95497.56;6124835;23;20251;-78
2023/04/11 10:33:08;;;;;;;4.93;1.23;;;;;;;11.40;58.76;95493.59;6125574;23;20267;-79
2023/04/11 10:35:33;;;;;;;7.60;1.40;;;;;;;11.03;56.88;95489.44;6100300;23;20191;-78
2023/04/11 10:37:59;;;;;;;8.10;1.30;;;;;;;11.28;56.71;95489.59;6099454;23;20153;-78
2023/04/11 10:40:24;;;;;;;4.17;1.50;;;;;;;11.21;56.29;95483.38;6099794;23;20183;-78
2023/04/11 10:42:50;;;;;;;5.20;1.20;;;;;;;11.34;55.52;95499.41;6098991;23;20183;-80
2023/04/11 10:45:18;;;;;;;6.20;1.80;;;;;;;11.25;55.94;95489.94;6098029;23;20157;-81
2023/04/11 10:47:50;;;;;;;7.10;1.63;;;;;;;11.45;54.63;95493.94;6121325;23;20164;-80
2023/04/11 10:50:30;;;;;;;3.60;1.30;;;;;;;11.54;54.88;95500.81;6099775;23;20247;-79
2023/04/11 10:53:03;;;;;;;4.77;1.50;;;;;;;11.88;55.91;95500.03;6123356;23;20184;-80
2023/04/11 10:55:31;;;;;;;2.83;1.30;;;;;;;11.72;54.11;95498.13;6121700;23;20174;-80
2023/04/11 10:58:07;;;;;;;5.87;1.50;;;;;;;11.66;52.59;95496.19;6122739;23;20167;-80
2023/04/11 11:00:51;;;;;;;3.93;1.20;;;;;;;11.81;52.45;95505.03;6098143;23;20267;-81
2023/04/11 11:03:24;;;;;;;5.50;2.33;;;;;;;11.16;52.25;95501.25;6123092;23;20231;-83
2023/04/11 11:06:04;;;;;;;7.30;1.60;;;;;;;11.38;52.81;95505.91;6122329;23;20165;-82
2023/04/11 11:08:31;;;;;;;5.20;1.53;;;;;;;11.55;52.69;95510.25;6122753;23;20160;-81
2023/04/11 11:11:05;;;;;;;5.83;1.60;;;;;;;11.80;53.21;95505.19;6121356;23;20349;-82
2023/04/11 11:13:40;;;;;;;5.83;1.83;;;;;;;11.64;52.36;95504.13;6097871;23;20192;-82
2023/04/11 11:16:07;;;;;;;5.23;1.53;;;;;;;11.73;52.28;95509.34;6097731;23;20152;-83
2023/04/11 11:18:33;;;;;;;7.73;1.83;;;;;;;11.55;53.74;95499.03;6096459;23;20168;-83
2023/04/11 11:20:59;;;;;;;6.00;1.57;;;;;;;11.39;53.19;95504.94;6072630;23;20635;-83
2023/04/11 11:23:24;;;;;;;4.90;1.33;;;;;;;11.23;53.22;95503.09;6096812;23;20176;-83
2023/04/11 11:25:57;;;;;;;5.60;2.17;;;;;;;11.02;53.14;95511.19;6097566;23;20543;-83
2023/04/11 11:28:23;;;;;;;3.60;1.90;;;;;;;11.06;53.25;95496.94;6097875;23;20250;-81
2023/04/11 11:30:52;;;;;;;8.40;1.93;;;;;;;11.46;52.81;95490.38;6096605;23;20247;-80
2023/04/11 11:33:19;;;;;;;4.37;1.30;;;;;;;11.62;51.80;95492.25;6095412;23;20287;-82
2023/04/11 11:35:51;;;;;;;6.70;1.90;;;;;;;11.69;52.22;95500.25;6116578;23;20519;-82
2023/04/11 11:38:18;;;;;;;3.40;1.37;;;;;;;11.42;53.11;95496.84;6095084;23;20544;-83